Portada
METAR-TAF:

METAR-TAF

Aeropuertos :

Aeropuerto Internacional de El Salvador

El Salvador, El Salvador

latitud: 13-26N, longitud: 089-03W, altitud: 25 m

Observación

El informe se hizo hace 38 minutos, a las 23:50 UTC
Viento 10 kt del norte-noreste
Temperatura 28°C
Humedad 55%
Presión 1010 hPa
Visibilidad 10 km o más
sin nubes por debajo de 1500 m y sin presencia de cumulonimbus.

METAR: MSLP 162350Z 02010KT CAVOK 28/18 Q1010 A2982 NOSIG

Hora: 18:28 (00:28 UTC)

Pronóstico

El informe se hizo hace 3 horas y 3 minutos, a las 21:25 UTC
Pronóstico válido del 17 a las 00 UTC al 17 a las 24 UTC
Viento 10 kt del norte con ráfagas de 22 kt
Visibilidad 10 km o más
sin nubes por debajo de 1500 m y sin presencia de cumulonimbus.

TAF: MSLP 162125Z 1700/1724 01010G22KT CAVOK TX34/1718Z TN23/1712Z

Observaciones y pronósticos meteorológicos de más de 4000 aeropuertos (mensajes METAR y TAF).

Los puntos amarillos y rojos representan las estaciones disponibles.

Ponga el ratón en el punto deseado para ver el nombre de la estación.

Haga clic para ver las observaciones y los pronósticos meteorológicos.

Para cambiar el mapa : haga clic en los botones verdes con una cruz de color negro para hacer un zoom, en el botón verde con un guión para alejar o en las flechas verdes para mapas adyacentes.


METAR-TAF: